sensor_id;sensor_type;location;lat;lon;timestamp;pressure;altitude;pressure_sealevel;temperature;humidity
43838;BME280;65998;46.256;7.534;2023-06-01T00:01:41;87204.78;;;18.78;55.27
43838;BME280;65998;46.256;7.534;2023-06-01T00:04:07;87206.91;;;18.77;55.16
43838;BME280;65998;46.256;7.534;2023-06-01T00:06:34;87204.78;;;18.78;55.20
43838;BME280;65998;46.256;7.534;2023-06-01T00:09:00;87206.22;;;18.77;55.14
43838;BME280;65998;46.256;7.534;2023-06-01T00:11:26;87207.56;;;18.78;55.11
43838;BME280;65998;46.256;7.534;2023-06-01T00:13:52;87206.91;;;18.77;55.13
43838;BME280;65998;46.256;7.534;2023-06-01T00:16:18;87208.31;;;18.76;55.23
43838;BME280;65998;46.256;7.534;2023-06-01T00:18:44;87208.31;;;18.76;55.15
43838;BME280;65998;46.256;7.534;2023-06-01T00:21:11;87209.00;;;18.77;55.13
43838;BME280;65998;46.256;7.534;2023-06-01T00:23:37;87211.78;;;18.77;55.11
43838;BME280;65998;46.256;7.534;2023-06-01T00:26:03;87204.88;;;18.76;55.33
43838;BME280;65998;46.256;7.534;2023-06-01T00:28:29;87212.53;;;18.75;55.13
43838;BME280;65998;46.256;7.534;2023-06-01T00:30:54;87209.75;;;18.75;55.05
43838;BME280;65998;46.256;7.534;2023-06-01T00:33:20;87203.50;;;18.75;55.06
43838;BME280;65998;46.256;7.534;2023-06-01T00:35:46;87207.72;;;18.74;55.17
43838;BME280;65998;46.256;7.534;2023-06-01T00:38:12;87200.03;;;18.74;54.82
43838;BME280;65998;46.256;7.534;2023-06-01T00:40:38;87202.16;;;18.74;55.12
43838;BME280;65998;46.256;7.534;2023-06-01T00:43:04;87203.56;;;18.73;55.24
43838;BME280;65998;46.256;7.534;2023-06-01T00:45:30;87204.25;;;18.73;55.18
43838;BME280;65998;46.256;7.534;2023-06-01T00:47:56;87201.47;;;18.73;55.19
43838;BME280;65998;46.256;7.534;2023-06-01T00:50:23;87200.09;;;18.72;55.20
43838;BME280;65998;46.256;7.534;2023-06-01T00:52:51;87202.19;;;18.72;55.12
43838;BME280;65998;46.256;7.534;2023-06-01T00:55:19;87197.31;;;18.72;54.99
43838;BME280;65998;46.256;7.534;2023-06-01T00:57:46;87207.75;;;18.72;55.17
43838;BME280;65998;46.256;7.534;2023-06-01T01:00:12;87199.50;;;18.70;55.26
43838;BME280;65998;46.256;7.534;2023-06-01T01:02:40;87200.16;;;18.70;55.27
43838;BME280;65998;46.256;7.534;2023-06-01T01:05:10;87203.63;;;18.71;55.27
43838;BME280;65998;46.256;7.534;2023-06-01T01:10:22;87202.28;;;18.70;55.37
43838;BME280;65998;46.256;7.534;2023-06-01T01:13:01;87198.13;;;18.69;55.48
43838;BME280;65998;46.256;7.534;2023-06-01T01:15:39;87201.59;;;18.69;55.54
43838;BME280;65998;46.256;7.534;2023-06-01T01:18:12;87200.91;;;18.69;55.57
43838;BME280;65998;46.256;7.534;2023-06-01T01:20:41;87200.25;;;18.68;55.45
43838;BME280;65998;46.256;7.534;2023-06-01T01:23:43;87207.91;;;18.68;55.67
43838;BME280;65998;46.256;7.534;2023-06-01T01:29:09;87205.13;;;18.68;55.96
43838;BME280;65998;46.256;7.534;2023-06-01T01:31:37;87207.31;;;18.65;55.96
43838;BME280;65998;46.256;7.534;2023-06-01T01:34:04;87203.84;;;18.65;56.00
43838;BME280;65998;46.256;7.534;2023-06-01T01:36:31;87211.50;;;18.64;56.11
43838;BME280;65998;46.256;7.534;2023-06-01T01:38:57;87209.47;;;18.63;56.11
43838;BME280;65998;46.256;7.534;2023-06-01T01:41:23;87220.63;;;18.63;56.20
43838;BME280;65998;46.256;7.534;2023-06-01T01:43:49;87217.81;;;18.63;56.16
43838;BME280;65998;46.256;7.534;2023-06-01T01:46:30;87215.03;;;18.63;56.21
43838;BME280;65998;46.256;7.534;2023-06-01T01:54:06;87208.84;;;18.60;56.35
43838;BME280;65998;46.256;7.534;2023-06-01T01:56:35;87207.44;;;18.61;56.34
43838;BME280;65998;46.256;7.534;2023-06-01T01:59:02;87206.81;;;18.59;56.40
43838;BME280;65998;46.256;7.534;2023-06-01T02:01:29;87208.91;;;18.58;56.40
43838;BME280;65998;46.256;7.534;2023-06-01T02:04:03;87208.16;;;18.60;56.35
43838;BME280;65998;46.256;7.534;2023-06-01T02:06:29;87201.31;;;18.57;56.58
43838;BME280;65998;46.256;7.534;2023-06-01T02:08:55;87208.31;;;18.56;56.49
43838;BME280;65998;46.256;7.534;2023-06-01T02:11:22;87209.00;;;18.56;56.45
43838;BME280;65998;46.256;7.534;2023-06-01T02:13:48;87209.00;;;18.56;56.45
43838;BME280;65998;46.256;7.534;2023-06-01T02:16:13;87204.84;;;18.55;56.25
43838;BME280;65998;46.256;7.534;2023-06-01T02:18:39;87201.38;;;18.55;56.46
43838;BME280;65998;46.256;7.534;2023-06-01T02:21:05;87206.28;;;18.54;56.41
43838;BME280;65998;46.256;7.534;2023-06-01T02:23:31;87209.06;;;18.54;56.54
43838;BME280;65998;46.256;7.534;2023-06-01T02:25:57;87207.69;;;18.53;56.62
43838;BME280;65998;46.256;7.534;2023-06-01T02:28:23;87204.25;;;18.52;56.40
43838;BME280;65998;46.256;7.534;2023-06-01T02:30:48;87200.78;;;18.52;56.42
43838;BME280;65998;46.256;7.534;2023-06-01T02:33:14;87200.09;;;18.51;56.35
43838;BME280;65998;46.256;7.534;2023-06-01T02:35:40;87196.66;;;18.51;56.43
43838;BME280;65998;46.256;7.534;2023-06-01T02:38:06;87204.31;;;18.50;56.43
43838;BME280;65998;46.256;7.534;2023-06-01T02:40:32;87199.44;;;18.51;56.45
43838;BME280;65998;46.256;7.534;2023-06-01T02:42:57;87200.84;;;18.50;56.35
43838;BME280;65998;46.256;7.534;2023-06-01T02:45:23;87201.53;;;18.50;56.37
43838;BME280;65998;46.256;7.534;2023-06-01T02:47:49;87196.03;;;18.48;56.43
43838;BME280;65998;46.256;7.534;2023-06-01T02:50:15;87190.47;;;18.48;56.43
43838;BME280;65998;46.256;7.534;2023-06-01T02:52:41;87203.72;;;18.48;56.42
43838;BME280;65998;46.256;7.534;2023-06-01T02:55:07;87195.34;;;18.48;56.46
43838;BME280;65998;46.256;7.534;2023-06-01T02:57:33;87197.47;;;18.47;56.43
43838;BME280;65998;46.256;7.534;2023-06-01T02:59:58;87196.09;;;18.46;56.40
43838;BME280;65998;46.256;7.534;2023-06-01T03:02:24;87190.53;;;18.46;56.32
43838;BME280;65998;46.256;7.534;2023-06-01T03:04:50;87196.78;;;18.47;56.43
43838;BME280;65998;46.256;7.534;2023-06-01T03:07:16;87189.88;;;18.46;56.39
43838;BME280;65998;46.256;7.534;2023-06-01T03:09:41;87194.75;;;18.45;56.34
43838;BME280;65998;46.256;7.534;2023-06-01T03:12:07;87187.16;;;18.44;56.49
43838;BME280;65998;46.256;7.534;2023-06-01T03:14:33;87185.72;;;18.45;56.34
43838;BME280;65998;46.256;7.534;2023-06-01T03:16:59;87182.25;;;18.44;56.46
43838;BME280;65998;46.256;7.534;2023-06-01T03:19:25;87183.69;;;18.43;56.41
43838;BME280;65998;46.256;7.534;2023-06-01T03:21:51;87183.00;;;18.43;56.46
43838;BME280;65998;46.256;7.534;2023-06-01T03:24:16;87185.13;;;18.42;56.43
43838;BME280;65998;46.256;7.534;2023-06-01T03:26:42;87182.34;;;18.42;56.41
43838;BME280;65998;46.256;7.534;2023-06-01T03:29:08;87184.44;;;18.42;56.49
43838;BME280;65998;46.256;7.534;2023-06-01T03:31:34;87192.78;;;18.42;56.43
43838;BME280;65998;46.256;7.534;2023-06-01T03:34:01;87189.34;;;18.41;56.42
43838;BME280;65998;46.256;7.534;2023-06-01T03:36:27;87184.50;;;18.40;56.45
43838;BME280;65998;46.256;7.534;2023-06-01T03:38:52;87193.53;;;18.40;56.41
43838;BME280;65998;46.256;7.534;2023-06-01T03:41:18;87186.63;;;18.39;56.48
43838;BME280;65998;46.256;7.534;2023-06-01T03:43:44;87190.06;;;18.40;56.40
43838;BME280;65998;46.256;7.534;2023-06-01T03:46:10;87189.41;;;18.39;56.49
43838;BME280;65998;46.256;7.534;2023-06-01T03:48:35;87192.94;;;18.38;56.51
43838;BME280;65998;46.256;7.534;2023-06-01T03:51:01;87200.59;;;18.37;56.46
43838;BME280;65998;46.256;7.534;2023-06-01T03:53:27;87195.72;;;18.38;56.44
43838;BME280;65998;46.256;7.534;2023-06-01T03:55:53;87197.13;;;18.37;56.40
43838;BME280;65998;46.256;7.534;2023-06-01T03:58:19;87196.47;;;18.36;56.38
43838;BME280;65998;46.256;7.534;2023-06-01T04:00:45;87186.75;;;18.35;56.41
43838;BME280;65998;46.256;7.534;2023-06-01T04:03:10;87195.09;;;18.35;56.30
43838;BME280;65998;46.256;7.534;2023-06-01T04:05:37;87193.75;;;18.34;56.42
43838;BME280;65998;46.256;7.534;2023-06-01T04:08:02;87200.00;;;18.35;56.37
43838;BME280;65998;46.256;7.534;2023-06-01T04:10:28;87199.31;;;18.34;56.42
43838;BME280;65998;46.256;7.534;2023-06-01T04:12:54;87204.19;;;18.34;56.35
43838;BME280;65998;46.256;7.534;2023-06-01T04:15:20;87206.97;;;18.34;56.40
43838;BME280;65998;46.256;7.534;2023-06-01T04:17:46;87206.97;;;18.34;56.40
43838;BME280;65998;46.256;7.534;2023-06-01T04:20:14;87199.38;;;18.32;56.49
43838;BME280;65998;46.256;7.534;2023-06-01T04:22:40;87201.50;;;18.32;56.32
43838;BME280;65998;46.256;7.534;2023-06-01T04:25:11;87202.84;;;18.33;56.35
43838;BME280;65998;46.256;7.534;2023-06-01T04:27:36;87200.13;;;18.31;56.35
43838;BME280;65998;46.256;7.534;2023-06-01T04:30:06;87201.50;;;18.32;56.33
43838;BME280;65998;46.256;7.534;2023-06-01T04:32:32;87196.66;;;18.30;56.28
43838;BME280;65998;46.256;7.534;2023-06-01T04:34:58;87200.88;;;18.29;56.27
43838;BME280;65998;46.256;7.534;2023-06-01T04:37:23;87207.13;;;18.30;56.30
43838;BME280;65998;46.256;7.534;2023-06-01T04:39:49;87204.34;;;18.30;56.28
43838;BME280;65998;46.256;7.534;2023-06-01T04:42:15;87205.09;;;18.28;56.30
43838;BME280;65998;46.256;7.534;2023-06-01T04:44:44;87208.53;;;18.29;56.33
43838;BME280;65998;46.256;7.534;2023-06-01T04:47:10;87201.63;;;18.28;56.29
43838;BME280;65998;46.256;7.534;2023-06-01T04:49:36;87195.38;;;18.27;56.22
43838;BME280;65998;46.256;7.534;2023-06-01T04:52:02;87203.72;;;18.27;56.17
43838;BME280;65998;46.256;7.534;2023-06-01T04:54:28;87200.94;;;18.27;56.22
43838;BME280;65998;46.256;7.534;2023-06-01T04:56:54;87198.91;;;18.26;56.12
43838;BME280;65998;46.256;7.534;2023-06-01T04:59:20;87200.28;;;18.27;56.12
43838;BME280;65998;46.256;7.534;2023-06-01T05:01:45;87201.00;;;18.25;56.20
43838;BME280;65998;46.256;7.534;2023-06-01T05:04:11;87201.00;;;18.25;56.20
43838;BME280;65998;46.256;7.534;2023-06-01T05:06:37;87198.22;;;18.25;56.12
43838;BME280;65998;46.256;7.534;2023-06-01T05:09:03;87202.44;;;18.24;56.14
43838;BME280;65998;46.256;7.534;2023-06-01T05:11:29;87198.97;;;18.24;56.11
43838;BME280;65998;46.256;7.534;2023-06-01T05:13:55;87203.88;;;18.23;56.09
43838;BME280;65998;46.256;7.534;2023-06-01T05:16:20;87203.88;;;18.23;56.07
43838;BME280;65998;46.256;7.534;2023-06-01T05:18:46;87198.31;;;18.23;56.13
43838;BME280;65998;46.256;7.534;2023-06-01T05:21:12;87205.28;;;18.22;56.15
43838;BME280;65998;46.256;7.534;2023-06-01T05:23:38;87204.63;;;18.22;56.06
43838;BME280;65998;46.256;7.534;2023-06-01T05:26:03;87196.94;;;18.22;55.97
43838;BME280;65998;46.256;7.534;2023-06-01T05:28:30;87199.72;;;18.22;55.88
43838;BME280;65998;46.256;7.534;2023-06-01T05:30:56;87198.38;;;18.21;55.98
43838;BME280;65998;46.256;7.534;2023-06-01T05:33:22;87198.38;;;18.21;55.93
43838;BME280;65998;46.256;7.534;2023-06-01T05:35:48;87201.16;;;18.21;55.94
43838;BME280;65998;46.256;7.534;2023-06-01T05:38:14;87194.91;;;18.21;55.93
43838;BME280;65998;46.256;7.534;2023-06-01T05:40:39;87196.28;;;18.22;55.96
43838;BME280;65998;46.256;7.534;2023-06-01T05:43:05;87196.28;;;18.22;55.74
43838;BME280;65998;46.256;7.534;2023-06-01T05:45:31;87196.28;;;18.22;55.70
43838;BME280;65998;46.256;7.534;2023-06-01T05:47:57;87193.50;;;18.22;55.74
43838;BME280;65998;46.256;7.534;2023-06-01T05:50:23;87196.28;;;18.22;55.68
43838;BME280;65998;46.256;7.534;2023-06-01T05:52:49;87187.94;;;18.22;55.68
43838;BME280;65998;46.256;7.534;2023-06-01T05:55:14;87190.72;;;18.22;55.65
43838;BME280;65998;46.256;7.534;2023-06-01T05:57:40;87190.72;;;18.22;55.65
43838;BME280;65998;46.256;7.534;2023-06-01T06:00:07;87194.16;;;18.22;55.57
43838;BME280;65998;46.256;7.534;2023-06-01T06:02:33;87193.50;;;18.22;55.66
43838;BME280;65998;46.256;7.534;2023-06-01T06:04:58;87185.81;;;18.22;55.56
43838;BME280;65998;46.256;7.534;2023-06-01T06:07:24;87186.50;;;18.23;55.50
43838;BME280;65998;46.256;7.534;2023-06-01T06:09:50;87182.38;;;18.22;55.63
43838;BME280;65998;46.256;7.534;2023-06-01T06:12:16;87180.94;;;18.23;55.43
43838;BME280;65998;46.256;7.534;2023-06-01T06:14:42;87185.06;;;18.24;55.41
43838;BME280;65998;46.256;7.534;2023-06-01T06:17:08;87185.75;;;18.24;55.47
43838;BME280;65998;46.256;7.534;2023-06-01T06:19:33;87180.88;;;18.25;55.47
43838;BME280;65998;46.256;7.534;2023-06-01T06:21:59;87187.09;;;18.25;55.41
43838;BME280;65998;46.256;7.534;2023-06-01T06:24:25;87186.34;;;18.27;55.28
43838;BME280;65998;46.256;7.534;2023-06-01T06:26:51;87188.41;;;18.28;55.31
43838;BME280;65998;46.256;7.534;2023-06-01T06:29:16;87194.63;;;18.29;55.21
43838;BME280;65998;46.256;7.534;2023-06-01T06:31:42;87182.09;;;18.30;55.14
43838;BME280;65998;46.256;7.534;2023-06-01T06:34:08;87189.75;;;18.29;55.03
43838;BME280;65998;46.256;7.534;2023-06-01T06:36:34;87187.66;;;18.30;54.77
43838;BME280;65998;46.256;7.534;2023-06-01T06:39:00;87191.78;;;18.31;54.59
43838;BME280;65998;46.256;7.534;2023-06-01T06:41:26;87184.78;;;18.32;54.44
43838;BME280;65998;46.256;7.534;2023-06-01T06:43:53;87188.94;;;18.33;54.35
43838;BME280;65998;46.256;7.534;2023-06-01T06:46:19;87188.94;;;18.33;54.39
43838;BME280;65998;46.256;7.534;2023-06-01T06:48:45;87192.41;;;18.33;54.03
43838;BME280;65998;46.256;7.534;2023-06-01T06:51:11;87187.50;;;18.34;53.92
43838;BME280;65998;46.256;7.534;2023-06-01T06:53:36;87190.22;;;18.36;53.94
43838;BME280;65998;46.256;7.534;2023-06-01T06:56:02;87181.19;;;18.35;53.72
43838;BME280;65998;46.256;7.534;2023-06-01T06:58:28;87184.66;;;18.36;53.73
43838;BME280;65998;46.256;7.534;2023-06-01T07:00:54;87187.38;;;18.38;53.63
43838;BME280;65998;46.256;7.534;2023-06-01T07:03:19;87184.59;;;18.38;53.53
43838;BME280;65998;46.256;7.534;2023-06-01T07:05:45;87185.94;;;18.39;53.55
43838;BME280;65998;46.256;7.534;2023-06-01T07:08:11;87182.41;;;18.40;53.49
43838;BME280;65998;46.256;7.534;2023-06-01T07:10:37;87181.72;;;18.40;53.51
43838;BME280;65998;46.256;7.534;2023-06-01T07:13:03;87183.09;;;18.41;53.45
43838;BME280;65998;46.256;7.534;2023-06-01T07:15:29;87181.66;;;18.42;53.31
43838;BME280;65998;46.256;7.534;2023-06-01T07:17:54;87178.19;;;18.41;53.31
43838;BME280;65998;46.256;7.534;2023-06-01T07:20:20;87171.22;;;18.42;53.15
43838;BME280;65998;46.256;7.534;2023-06-01T07:22:46;87173.31;;;18.42;53.17
43838;BME280;65998;46.256;7.534;2023-06-01T07:25:12;87171.88;;;18.43;53.07
43838;BME280;65998;46.256;7.534;2023-06-01T07:27:37;87172.56;;;18.43;53.03
43838;BME280;65998;46.256;7.534;2023-06-01T07:30:04;87172.50;;;18.45;53.07
43838;BME280;65998;46.256;7.534;2023-06-01T07:32:30;87175.94;;;18.46;52.95
43838;BME280;65998;46.256;7.534;2023-06-01T07:34:56;87171.13;;;18.44;52.99
43838;BME280;65998;46.256;7.534;2023-06-01T07:37:22;87176.63;;;18.46;52.93
43838;BME280;65998;46.256;7.534;2023-06-01T07:39:48;87166.19;;;18.47;52.98
43838;BME280;65998;46.256;7.534;2023-06-01T07:42:14;87166.84;;;18.47;52.86
43838;BME280;65998;46.256;7.534;2023-06-01T07:44:40;87169.63;;;18.47;52.90
43838;BME280;65998;46.256;7.534;2023-06-01T07:47:06;87166.84;;;18.47;52.75
43838;BME280;65998;46.256;7.534;2023-06-01T07:49:33;87165.44;;;18.48;52.77
43838;BME280;65998;46.256;7.534;2023-06-01T07:51:58;87164.75;;;18.48;52.73
43838;BME280;65998;46.256;7.534;2023-06-01T07:54:24;87161.22;;;18.49;52.70
43838;BME280;65998;46.256;7.534;2023-06-01T07:56:50;87163.31;;;18.49;52.67
43838;BME280;65998;46.256;7.534;2023-06-01T07:59:16;87165.34;;;18.50;52.50
43838;BME280;65998;46.256;7.534;2023-06-01T08:01:41;87163.25;;;18.51;52.52
43838;BME280;65998;46.256;7.534;2023-06-01T08:04:07;87159.78;;;18.50;52.57
43838;BME280;65998;46.256;7.534;2023-06-01T08:06:33;87154.91;;;18.51;52.46
43838;BME280;65998;46.256;7.534;2023-06-01T08:08:59;87159.03;;;18.52;52.42
43838;BME280;65998;46.256;7.534;2023-06-01T08:11:25;87161.16;;;18.51;52.40
43838;BME280;65998;46.256;7.534;2023-06-01T08:13:50;87170.19;;;18.52;52.41
43838;BME280;65998;46.256;7.534;2023-06-01T08:16:16;87161.16;;;18.51;52.37
43838;BME280;65998;46.256;7.534;2023-06-01T08:18:42;87167.38;;;18.52;52.38
43838;BME280;65998;46.256;7.534;2023-06-01T08:21:09;87153.47;;;18.52;52.28
43838;BME280;65998;46.256;7.534;2023-06-01T08:23:35;87157.00;;;18.50;52.29
43838;BME280;65998;46.256;7.534;2023-06-01T08:26:01;87151.44;;;18.50;52.36
43838;BME280;65998;46.256;7.534;2023-06-01T08:28:27;87145.94;;;18.48;52.36
43838;BME280;65998;46.256;7.534;2023-06-01T08:30:53;87150.84;;;18.48;52.28
43838;BME280;65998;46.256;7.534;2023-06-01T08:33:19;87146.69;;;18.47;52.25
43838;BME280;65998;46.256;7.534;2023-06-01T08:35:44;87147.44;;;18.45;52.31
43838;BME280;65998;46.256;7.534;2023-06-01T08:38:10;87148.88;;;18.44;52.36
43838;BME280;65998;46.256;7.534;2023-06-01T08:40:36;87153.75;;;18.44;52.38
43838;BME280;65998;46.256;7.534;2023-06-01T08:43:11;87150.31;;;18.43;52.39
43838;BME280;65998;46.256;7.534;2023-06-01T08:45:38;87138.50;;;18.43;52.24
43838;BME280;65998;46.256;7.534;2023-06-01T08:48:04;87138.50;;;18.43;52.31
43838;BME280;65998;46.256;7.534;2023-06-01T08:50:33;87150.38;;;18.41;52.26
43838;BME280;65998;46.256;7.534;2023-06-01T08:52:59;87140.69;;;18.40;52.38
43838;BME280;65998;46.256;7.534;2023-06-01T08:55:25;87146.25;;;18.40;52.22
43838;BME280;65998;46.256;7.534;2023-06-01T08:57:53;87137.91;;;18.40;52.35
43838;BME280;65998;46.256;7.534;2023-06-01T09:00:20;87140.00;;;18.40;52.32
43838;BME280;65998;46.256;7.534;2023-06-01T09:02:46;87133.09;;;18.39;52.40
43838;BME280;65998;46.256;7.534;2023-06-01T09:05:12;87129.63;;;18.38;52.24
43838;BME280;65998;46.256;7.534;2023-06-01T09:07:39;87132.41;;;18.38;52.19
43838;BME280;65998;46.256;7.534;2023-06-01T09:10:06;87137.97;;;18.38;52.31
43838;BME280;65998;46.256;7.534;2023-06-01T09:12:32;87134.50;;;18.38;52.31
43838;BME280;65998;46.256;7.534;2023-06-01T09:17:39;87133.16;;;18.37;52.30
43838;BME280;65998;46.256;7.534;2023-06-01T09:20:06;87125.47;;;18.37;52.30
43838;BME280;65998;46.256;7.534;2023-06-01T09:22:43;87123.38;;;18.38;52.34
43838;BME280;65998;46.256;7.534;2023-06-01T09:25:09;87124.81;;;18.37;52.31
43838;BME280;65998;46.256;7.534;2023-06-01T09:27:51;87120.59;;;18.38;52.28
43838;BME280;65998;46.256;7.534;2023-06-01T09:30:19;87115.78;;;18.36;52.21
43838;BME280;65998;46.256;7.534;2023-06-01T09:32:46;87110.97;;;18.35;52.33
43838;BME280;65998;46.256;7.534;2023-06-01T09:35:12;87107.50;;;18.34;52.31
43838;BME280;65998;46.256;7.534;2023-06-01T09:37:38;87107.50;;;18.34;52.38
43838;BME280;65998;46.256;7.534;2023-06-01T09:40:17;87091.50;;;18.35;52.34
43838;BME280;65998;46.256;7.534;2023-06-01T09:42:43;87099.16;;;18.34;52.31
43838;BME280;65998;46.256;7.534;2023-06-01T09:45:20;87094.94;;;18.35;52.30
43838;BME280;65998;46.256;7.534;2023-06-01T09:47:48;87106.75;;;18.36;52.26
43838;BME280;65998;46.256;7.534;2023-06-01T09:50:34;87094.94;;;18.35;52.32
43838;BME280;65998;46.256;7.534;2023-06-01T09:53:00;87093.59;;;18.34;52.37
43838;BME280;65998;46.256;7.534;2023-06-01T09:55:26;87088.03;;;18.34;52.42
43838;BME280;65998;46.256;7.534;2023-06-01T09:57:53;87088.03;;;18.34;52.39
43838;BME280;65998;46.256;7.534;2023-06-01T10:00:38;87085.94;;;18.35;52.37
43838;BME280;65998;46.256;7.534;2023-06-01T10:03:05;87088.03;;;18.34;52.30
43838;BME280;65998;46.256;7.534;2023-06-01T10:05:31;87083.16;;;18.35;52.31
43838;BME280;65998;46.256;7.534;2023-06-01T10:07:57;87081.13;;;18.33;52.38
43838;BME280;65998;46.256;7.534;2023-06-01T10:10:23;87085.25;;;18.34;52.22
43838;BME280;65998;46.256;7.534;2023-06-01T10:12:49;87075.56;;;18.33;52.38
43838;BME280;65998;46.256;7.534;2023-06-01T10:15:15;87074.13;;;18.34;52.37
43838;BME280;65998;46.256;7.534;2023-06-01T10:17:42;87079.00;;;18.34;52.44
43838;BME280;65998;46.256;7.534;2023-06-01T10:20:09;87077.59;;;18.35;52.45
43838;BME280;65998;46.256;7.534;2023-06-01T10:22:39;87079.69;;;18.34;52.37
43838;BME280;65998;46.256;7.534;2023-06-01T10:25:09;87076.91;;;18.34;52.50
43838;BME280;65998;46.256;7.534;2023-06-01T10:27:41;87070.66;;;18.34;52.52
43838;BME280;65998;46.256;7.534;2023-06-01T10:30:08;87073.44;;;18.34;52.52
43838;BME280;65998;46.256;7.534;2023-06-01T10:32:43;87076.91;;;18.34;52.52
43838;BME280;65998;46.256;7.534;2023-06-01T10:35:09;87079.00;;;18.34;52.60
43838;BME280;65998;46.256;7.534;2023-06-01T10:37:35;87075.56;;;18.33;52.60
43838;BME280;65998;46.256;7.534;2023-06-01T10:40:29;87070.66;;;18.34;52.61
43838;BME280;65998;46.256;7.534;2023-06-01T10:42:55;87072.09;;;18.33;52.53
43838;BME280;65998;46.256;7.534;2023-06-01T10:48:00;87063.75;;;18.33;52.56
43838;BME280;65998;46.256;7.534;2023-06-01T10:50:26;87070.00;;;18.33;52.73
43838;BME280;65998;46.256;7.534;2023-06-01T10:52:54;87065.09;;;18.34;52.62
43838;BME280;65998;46.256;7.534;2023-06-01T10:55:25;87064.44;;;18.33;52.72
43838;BME280;65998;46.256;7.534;2023-06-01T10:58:21;87062.31;;;18.34;52.74
43838;BME280;65998;46.256;7.534;2023-06-01T11:00:47;87059.53;;;18.34;52.73
43838;BME280;65998;46.256;7.534;2023-06-01T11:03:14;87058.88;;;18.33;52.74
43838;BME280;65998;46.256;7.534;2023-06-01T11:05:52;87060.91;;;18.35;52.82
43838;BME280;65998;46.256;7.534;2023-06-01T11:13:23;87054.66;;;18.34;52.85
43838;BME280;65998;46.256;7.534;2023-06-01T11:21:05;87051.19;;;18.34;52.95
43838;BME280;65998;46.256;7.534;2023-06-01T11:23:31;87058.13;;;18.35;52.90
43838;BME280;65998;46.256;7.534;2023-06-01T11:25:59;87053.31;;;18.33;52.98
43838;BME280;65998;46.256;7.534;2023-06-01T11:28:28;87053.31;;;18.33;52.95
43838;BME280;65998;46.256;7.534;2023-06-01T11:30:55;87061.56;;;18.35;53.06
43838;BME280;65998;46.256;7.534;2023-06-01T11:33:21;87054.66;;;18.34;53.06
43838;BME280;65998;46.256;7.534;2023-06-01T11:35:47;87059.53;;;18.34;53.02
43838;BME280;65998;46.256;7.534;2023-06-01T11:38:22;87058.13;;;18.35;53.00
43838;BME280;65998;46.256;7.534;2023-06-01T11:41:19;87067.81;;;18.36;53.07
43838;BME280;65998;46.256;7.534;2023-06-01T11:43:45;87058.13;;;18.35;53.10
43838;BME280;65998;46.256;7.534;2023-06-01T11:46:10;87061.56;;;18.35;53.16
43838;BME280;65998;46.256;7.534;2023-06-01T11:48:36;87052.56;;;18.35;53.16
43838;BME280;65998;46.256;7.534;2023-06-01T11:51:02;87058.78;;;18.35;53.20
43838;BME280;65998;46.256;7.534;2023-06-01T11:53:30;87055.25;;;18.37;53.20
43838;BME280;65998;46.256;7.534;2023-06-01T11:55:56;87056.00;;;18.35;53.25
43838;BME280;65998;46.256;7.534;2023-06-01T11:58:28;87057.34;;;18.36;53.20
43838;BME280;65998;46.256;7.534;2023-06-01T12:00:55;87052.47;;;18.37;53.16
43838;BME280;65998;46.256;7.534;2023-06-01T12:03:23;87055.25;;;18.37;53.21
43838;BME280;65998;46.256;7.534;2023-06-01T12:05:49;87048.34;;;18.36;53.31
43838;BME280;65998;46.256;7.534;2023-06-01T12:08:18;87055.94;;;18.37;53.39
43838;BME280;65998;46.256;7.534;2023-06-01T12:10:45;87048.25;;;18.38;53.30
43838;BME280;65998;46.256;7.534;2023-06-01T12:13:11;87046.91;;;18.37;53.36
43838;BME280;65998;46.256;7.534;2023-06-01T12:15:37;87044.81;;;18.37;53.35
43838;BME280;65998;46.256;7.534;2023-06-01T12:18:03;87044.13;;;18.37;53.34
43838;BME280;65998;46.256;7.534;2023-06-01T12:22:57;87041.28;;;18.39;53.36
43838;BME280;65998;46.256;7.534;2023-06-01T12:25:23;87034.34;;;18.38;53.62
43838;BME280;65998;46.256;7.534;2023-06-01T12:28:03;87041.94;;;18.39;53.41
43838;BME280;65998;46.256;7.534;2023-06-01T12:30:29;87032.94;;;18.39;53.38
43838;BME280;65998;46.256;7.534;2023-06-01T12:32:55;87035.03;;;18.38;53.41
43838;BME280;65998;46.256;7.534;2023-06-01T12:35:20;87032.94;;;18.39;53.59
43838;BME280;65998;46.256;7.534;2023-06-01T12:38:10;87037.75;;;18.40;53.44
43838;BME280;65998;46.256;7.534;2023-06-01T12:40:37;87034.28;;;18.40;53.48
43838;BME280;65998;46.256;7.534;2023-06-01T12:43:03;87032.94;;;18.39;53.49
43838;BME280;65998;46.256;7.534;2023-06-01T12:45:36;87027.28;;;18.41;53.39
43838;BME280;65998;46.256;7.534;2023-06-01T12:48:04;87022.47;;;18.39;53.57
43838;BME280;65998;46.256;7.534;2023-06-01T12:50:29;87028.03;;;18.39;53.55
43838;BME280;65998;46.256;7.534;2023-06-01T12:52:55;87028.72;;;18.40;53.46
43838;BME280;65998;46.256;7.534;2023-06-01T12:55:21;87025.19;;;18.41;53.60
43838;BME280;65998;46.256;7.534;2023-06-01T12:57:54;87020.28;;;18.42;53.54
43838;BME280;65998;46.256;7.534;2023-06-01T13:00:21;87016.16;;;18.41;53.53
43838;BME280;65998;46.256;7.534;2023-06-01T13:02:47;87016.16;;;18.41;53.59
43838;BME280;65998;46.256;7.534;2023-06-01T13:05:13;87010.59;;;18.41;53.62
43838;BME280;65998;46.256;7.534;2023-06-01T13:07:39;87007.13;;;18.40;53.61
43838;BME280;65998;46.256;7.534;2023-06-01T13:10:05;87011.94;;;18.42;53.60
43838;BME280;65998;46.256;7.534;2023-06-01T13:12:31;86994.56;;;18.41;53.69
43838;BME280;65998;46.256;7.534;2023-06-01T13:14:57;87000.81;;;18.42;53.72
43838;BME280;65998;46.256;7.534;2023-06-01T13:17:23;87000.13;;;18.41;53.59
43838;BME280;65998;46.256;7.534;2023-06-01T13:19:49;87000.81;;;18.42;53.65
43838;BME280;65998;46.256;7.534;2023-06-01T13:22:15;86995.25;;;18.42;53.73
43838;BME280;65998;46.256;7.534;2023-06-01T13:24:41;86995.25;;;18.42;53.76
43838;BME280;65998;46.256;7.534;2023-06-01T13:27:07;86995.94;;;18.42;53.66
43838;BME280;65998;46.256;7.534;2023-06-01T13:29:32;86993.16;;;18.42;53.73